sensor_id;sensor_type;location;lat;lon;timestamp;temperature;humidity
37788;DHT22;23627;53.302;-6.362;2022-12-17T00:00:20;2.80;99.90
37788;DHT22;23627;53.302;-6.362;2022-12-17T00:03:04;2.80;99.90
37788;DHT22;23627;53.302;-6.362;2022-12-17T00:05:48;2.80;99.90
37788;DHT22;23627;53.302;-6.362;2022-12-17T00:08:34;2.80;99.90
37788;DHT22;23627;53.302;-6.362;2022-12-17T00:11:18;2.80;99.90
37788;DHT22;23627;53.302;-6.362;2022-12-17T00:14:04;2.80;99.90
37788;DHT22;23627;53.302;-6.362;2022-12-17T00:16:48;2.80;99.90
37788;DHT22;23627;53.302;-6.362;2022-12-17T00:19:32;2.80;99.90
37788;DHT22;23627;53.302;-6.362;2022-12-17T00:22:16;2.80;99.90
37788;DHT22;23627;53.302;-6.362;2022-12-17T00:25:01;2.70;99.90
37788;DHT22;23627;53.302;-6.362;2022-12-17T00:27:45;2.80;99.90
37788;DHT22;23627;53.302;-6.362;2022-12-17T00:30:29;2.80;99.90
37788;DHT22;23627;53.302;-6.362;2022-12-17T00:33:13;2.80;99.90
37788;DHT22;23627;53.302;-6.362;2022-12-17T00:35:57;2.70;99.90
37788;DHT22;23627;53.302;-6.362;2022-12-17T00:38:41;2.70;99.90
37788;DHT22;23627;53.302;-6.362;2022-12-17T00:41:27;2.70;99.90
37788;DHT22;23627;53.302;-6.362;2022-12-17T00:44:11;2.70;99.90
37788;DHT22;23627;53.302;-6.362;2022-12-17T00:46:55;2.70;99.90
37788;DHT22;23627;53.302;-6.362;2022-12-17T00:49:39;2.70;99.90
37788;DHT22;23627;53.302;-6.362;2022-12-17T00:52:24;2.70;99.90
37788;DHT22;23627;53.302;-6.362;2022-12-17T00:55:08;2.70;99.90
37788;DHT22;23627;53.302;-6.362;2022-12-17T00:57:53;2.70;99.90
37788;DHT22;23627;53.302;-6.362;2022-12-17T01:00:37;2.80;99.90
37788;DHT22;23627;53.302;-6.362;2022-12-17T01:03:21;2.70;99.90
37788;DHT22;23627;53.302;-6.362;2022-12-17T01:06:05;2.70;99.90
37788;DHT22;23627;53.302;-6.362;2022-12-17T01:08:50;2.70;99.90
37788;DHT22;23627;53.302;-6.362;2022-12-17T01:11:34;2.70;99.90
37788;DHT22;23627;53.302;-6.362;2022-12-17T01:14:18;2.70;99.90
37788;DHT22;23627;53.302;-6.362;2022-12-17T01:17:02;2.80;99.90
37788;DHT22;23627;53.302;-6.362;2022-12-17T01:19:46;2.80;99.90
37788;DHT22;23627;53.302;-6.362;2022-12-17T01:22:31;2.80;99.90
37788;DHT22;23627;53.302;-6.362;2022-12-17T01:25:15;2.70;99.90
37788;DHT22;23627;53.302;-6.362;2022-12-17T01:27:59;2.80;99.90
37788;DHT22;23627;53.302;-6.362;2022-12-17T01:30:43;2.80;99.90
37788;DHT22;23627;53.302;-6.362;2022-12-17T01:33:27;2.80;99.90
37788;DHT22;23627;53.302;-6.362;2022-12-17T01:36:12;2.80;99.90
37788;DHT22;23627;53.302;-6.362;2022-12-17T01:38:56;2.80;99.90
37788;DHT22;23627;53.302;-6.362;2022-12-17T01:41:40;2.80;99.90
37788;DHT22;23627;53.302;-6.362;2022-12-17T01:47:36;2.80;99.90
37788;DHT22;23627;53.302;-6.362;2022-12-17T01:50:20;2.80;99.90
37788;DHT22;23627;53.302;-6.362;2022-12-17T01:53:06;2.80;99.90
37788;DHT22;23627;53.302;-6.362;2022-12-17T01:55:51;2.80;99.90
37788;DHT22;23627;53.302;-6.362;2022-12-17T01:58:36;2.80;99.90
37788;DHT22;23627;53.302;-6.362;2022-12-17T02:01:20;2.80;99.90
37788;DHT22;23627;53.302;-6.362;2022-12-17T02:04:05;2.80;99.90
37788;DHT22;23627;53.302;-6.362;2022-12-17T02:06:57;2.80;99.90
37788;DHT22;23627;53.302;-6.362;2022-12-17T02:09:49;2.80;99.90
37788;DHT22;23627;53.302;-6.362;2022-12-17T02:12:41;2.80;99.90
37788;DHT22;23627;53.302;-6.362;2022-12-17T02:15:39;2.80;99.90
37788;DHT22;23627;53.302;-6.362;2022-12-17T02:18:48;2.80;99.90
37788;DHT22;23627;53.302;-6.362;2022-12-17T02:21:33;2.80;99.90
37788;DHT22;23627;53.302;-6.362;2022-12-17T02:24:27;2.80;99.90
37788;DHT22;23627;53.302;-6.362;2022-12-17T02:27:13;2.80;99.90
37788;DHT22;23627;53.302;-6.362;2022-12-17T02:29:59;2.80;99.90
37788;DHT22;23627;53.302;-6.362;2022-12-17T02:32:44;2.80;99.90
37788;DHT22;23627;53.302;-6.362;2022-12-17T02:35:52;2.80;99.90
37788;DHT22;23627;53.302;-6.362;2022-12-17T02:38:34;2.80;99.90
37788;DHT22;23627;53.302;-6.362;2022-12-17T02:41:19;2.80;99.90
37788;DHT22;23627;53.302;-6.362;2022-12-17T02:44:05;2.80;99.90
37788;DHT22;23627;53.302;-6.362;2022-12-17T02:46:50;2.80;99.90
37788;DHT22;23627;53.302;-6.362;2022-12-17T02:49:35;2.80;99.90
37788;DHT22;23627;53.302;-6.362;2022-12-17T02:52:26;2.80;99.90
37788;DHT22;23627;53.302;-6.362;2022-12-17T02:55:11;2.80;99.90
37788;DHT22;23627;53.302;-6.362;2022-12-17T02:57:55;2.80;99.90
37788;DHT22;23627;53.302;-6.362;2022-12-17T03:00:39;2.80;99.90
37788;DHT22;23627;53.302;-6.362;2022-12-17T03:03:23;2.80;99.90
37788;DHT22;23627;53.302;-6.362;2022-12-17T03:06:07;2.80;99.90
37788;DHT22;23627;53.302;-6.362;2022-12-17T03:08:52;2.80;99.90
37788;DHT22;23627;53.302;-6.362;2022-12-17T03:11:36;2.80;99.90
37788;DHT22;23627;53.302;-6.362;2022-12-17T03:14:20;2.80;99.90
37788;DHT22;23627;53.302;-6.362;2022-12-17T03:17:04;2.80;99.90
37788;DHT22;23627;53.302;-6.362;2022-12-17T03:19:49;2.80;99.90
37788;DHT22;23627;53.302;-6.362;2022-12-17T03:22:33;2.80;99.90
37788;DHT22;23627;53.302;-6.362;2022-12-17T03:25:17;2.70;99.90
37788;DHT22;23627;53.302;-6.362;2022-12-17T03:28:02;2.70;99.90
37788;DHT22;23627;53.302;-6.362;2022-12-17T03:30:47;2.70;99.90
37788;DHT22;23627;53.302;-6.362;2022-12-17T03:33:31;2.70;99.90
37788;DHT22;23627;53.302;-6.362;2022-12-17T03:36:15;2.70;99.90
37788;DHT22;23627;53.302;-6.362;2022-12-17T03:38:59;2.70;99.90
37788;DHT22;23627;53.302;-6.362;2022-12-17T03:41:44;2.70;99.90
37788;DHT22;23627;53.302;-6.362;2022-12-17T03:44:28;2.70;99.90
37788;DHT22;23627;53.302;-6.362;2022-12-17T03:47:12;2.70;99.90
37788;DHT22;23627;53.302;-6.362;2022-12-17T03:49:56;2.70;99.90
37788;DHT22;23627;53.302;-6.362;2022-12-17T03:52:40;2.70;99.90
37788;DHT22;23627;53.302;-6.362;2022-12-17T03:55:24;2.70;99.90
37788;DHT22;23627;53.302;-6.362;2022-12-17T03:58:08;2.70;99.90
37788;DHT22;23627;53.302;-6.362;2022-12-17T04:00:52;2.70;99.90
37788;DHT22;23627;53.302;-6.362;2022-12-17T04:03:38;2.70;99.90
37788;DHT22;23627;53.302;-6.362;2022-12-17T04:06:22;2.70;99.90
37788;DHT22;23627;53.302;-6.362;2022-12-17T04:09:07;2.70;99.90
37788;DHT22;23627;53.302;-6.362;2022-12-17T04:11:51;2.70;99.90
37788;DHT22;23627;53.302;-6.362;2022-12-17T04:14:35;2.70;99.90
37788;DHT22;23627;53.302;-6.362;2022-12-17T04:17:19;2.70;99.90
37788;DHT22;23627;53.302;-6.362;2022-12-17T04:20:04;2.70;99.90
37788;DHT22;23627;53.302;-6.362;2022-12-17T04:22:48;2.70;99.90
37788;DHT22;23627;53.302;-6.362;2022-12-17T04:25:32;2.70;99.90
37788;DHT22;23627;53.302;-6.362;2022-12-17T04:28:17;2.70;99.90
37788;DHT22;23627;53.302;-6.362;2022-12-17T04:31:01;2.60;99.90
37788;DHT22;23627;53.302;-6.362;2022-12-17T04:33:45;2.60;99.90
37788;DHT22;23627;53.302;-6.362;2022-12-17T04:36:29;2.60;99.90
37788;DHT22;23627;53.302;-6.362;2022-12-17T04:39:13;2.60;99.90
37788;DHT22;23627;53.302;-6.362;2022-12-17T04:41:57;2.70;99.90
37788;DHT22;23627;53.302;-6.362;2022-12-17T04:44:42;2.60;99.90
37788;DHT22;23627;53.302;-6.362;2022-12-17T04:47:26;2.70;99.90
37788;DHT22;23627;53.302;-6.362;2022-12-17T04:50:10;2.60;99.90
37788;DHT22;23627;53.302;-6.362;2022-12-17T04:52:58;2.60;99.90
37788;DHT22;23627;53.302;-6.362;2022-12-17T04:55:42;2.60;99.90
37788;DHT22;23627;53.302;-6.362;2022-12-17T04:58:26;2.60;99.90
37788;DHT22;23627;53.302;-6.362;2022-12-17T05:01:10;2.60;99.90
37788;DHT22;23627;53.302;-6.362;2022-12-17T05:03:55;2.70;99.90
37788;DHT22;23627;53.302;-6.362;2022-12-17T05:06:39;2.70;99.90
37788;DHT22;23627;53.302;-6.362;2022-12-17T05:09:23;2.70;99.90
37788;DHT22;23627;53.302;-6.362;2022-12-17T05:12:07;2.70;99.90
37788;DHT22;23627;53.302;-6.362;2022-12-17T05:14:51;2.70;99.90
37788;DHT22;23627;53.302;-6.362;2022-12-17T05:17:36;2.80;99.90
37788;DHT22;23627;53.302;-6.362;2022-12-17T05:20:20;2.80;99.90
37788;DHT22;23627;53.302;-6.362;2022-12-17T05:23:04;2.80;99.90
37788;DHT22;23627;53.302;-6.362;2022-12-17T05:25:49;2.80;99.90
37788;DHT22;23627;53.302;-6.362;2022-12-17T05:28:33;2.90;99.90
37788;DHT22;23627;53.302;-6.362;2022-12-17T05:31:17;2.90;99.90
37788;DHT22;23627;53.302;-6.362;2022-12-17T05:34:02;2.90;99.90
37788;DHT22;23627;53.302;-6.362;2022-12-17T05:36:46;2.90;99.90
37788;DHT22;23627;53.302;-6.362;2022-12-17T05:39:30;2.90;99.90
37788;DHT22;23627;53.302;-6.362;2022-12-17T05:42:14;2.90;99.90
37788;DHT22;23627;53.302;-6.362;2022-12-17T05:45:00;2.90;99.90
37788;DHT22;23627;53.302;-6.362;2022-12-17T05:47:44;3.00;99.90
37788;DHT22;23627;53.302;-6.362;2022-12-17T05:50:28;3.00;99.90
37788;DHT22;23627;53.302;-6.362;2022-12-17T05:53:12;3.00;99.90
37788;DHT22;23627;53.302;-6.362;2022-12-17T05:55:57;3.00;99.90
37788;DHT22;23627;53.302;-6.362;2022-12-17T05:58:41;3.00;99.90
37788;DHT22;23627;53.302;-6.362;2022-12-17T06:01:25;3.00;99.90
37788;DHT22;23627;53.302;-6.362;2022-12-17T06:04:09;3.00;99.90
37788;DHT22;23627;53.302;-6.362;2022-12-17T06:06:58;3.00;99.90
37788;DHT22;23627;53.302;-6.362;2022-12-17T06:09:42;3.10;99.90
37788;DHT22;23627;53.302;-6.362;2022-12-17T06:12:28;3.10;99.90
37788;DHT22;23627;53.302;-6.362;2022-12-17T06:15:12;3.10;99.90
37788;DHT22;23627;53.302;-6.362;2022-12-17T06:17:56;3.10;99.90
37788;DHT22;23627;53.302;-6.362;2022-12-17T06:20:40;3.10;99.90
37788;DHT22;23627;53.302;-6.362;2022-12-17T06:23:25;3.20;99.90
37788;DHT22;23627;53.302;-6.362;2022-12-17T06:26:09;3.20;99.90
37788;DHT22;23627;53.302;-6.362;2022-12-17T06:28:53;3.20;99.90
37788;DHT22;23627;53.302;-6.362;2022-12-17T06:31:37;3.20;99.90
37788;DHT22;23627;53.302;-6.362;2022-12-17T06:34:21;3.20;99.90
37788;DHT22;23627;53.302;-6.362;2022-12-17T06:37:05;3.20;99.90
37788;DHT22;23627;53.302;-6.362;2022-12-17T06:39:50;3.20;99.90
37788;DHT22;23627;53.302;-6.362;2022-12-17T06:42:34;3.20;99.90
37788;DHT22;23627;53.302;-6.362;2022-12-17T06:45:18;3.30;99.90
37788;DHT22;23627;53.302;-6.362;2022-12-17T06:48:03;3.30;99.90
37788;DHT22;23627;53.302;-6.362;2022-12-17T06:50:48;3.40;99.90
37788;DHT22;23627;53.302;-6.362;2022-12-17T06:53:33;3.40;99.90
37788;DHT22;23627;53.302;-6.362;2022-12-17T06:56:27;3.40;99.90
37788;DHT22;23627;53.302;-6.362;2022-12-17T06:59:11;3.50;99.90
37788;DHT22;23627;53.302;-6.362;2022-12-17T07:01:55;3.50;99.90
37788;DHT22;23627;53.302;-6.362;2022-12-17T07:04:40;3.50;99.90
37788;DHT22;23627;53.302;-6.362;2022-12-17T07:07:24;3.50;99.90
37788;DHT22;23627;53.302;-6.362;2022-12-17T07:10:08;3.60;99.90
37788;DHT22;23627;53.302;-6.362;2022-12-17T07:12:52;3.60;99.90
37788;DHT22;23627;53.302;-6.362;2022-12-17T07:15:36;3.60;99.90
37788;DHT22;23627;53.302;-6.362;2022-12-17T07:18:20;3.60;99.90
37788;DHT22;23627;53.302;-6.362;2022-12-17T07:21:05;3.70;99.90
37788;DHT22;23627;53.302;-6.362;2022-12-17T07:23:49;3.70;99.90
37788;DHT22;23627;53.302;-6.362;2022-12-17T07:26:33;3.60;99.90
37788;DHT22;23627;53.302;-6.362;2022-12-17T07:29:17;3.60;99.90
37788;DHT22;23627;53.302;-6.362;2022-12-17T07:32:01;3.60;99.90
37788;DHT22;23627;53.302;-6.362;2022-12-17T07:34:53;3.60;99.90
37788;DHT22;23627;53.302;-6.362;2022-12-17T07:37:37;3.60;99.90
37788;DHT22;23627;53.302;-6.362;2022-12-17T07:40:21;3.60;99.90
37788;DHT22;23627;53.302;-6.362;2022-12-17T07:43:09;3.60;99.90
37788;DHT22;23627;53.302;-6.362;2022-12-17T07:45:55;3.60;99.90
37788;DHT22;23627;53.302;-6.362;2022-12-17T07:48:39;3.60;99.90
37788;DHT22;23627;53.302;-6.362;2022-12-17T07:51:24;3.60;99.90
37788;DHT22;23627;53.302;-6.362;2022-12-17T07:54:08;3.60;99.90
37788;DHT22;23627;53.302;-6.362;2022-12-17T07:56:52;3.50;99.90
37788;DHT22;23627;53.302;-6.362;2022-12-17T07:59:36;3.50;99.90
37788;DHT22;23627;53.302;-6.362;2022-12-17T08:02:20;3.50;99.90
37788;DHT22;23627;53.302;-6.362;2022-12-17T08:05:04;3.50;99.90
37788;DHT22;23627;53.302;-6.362;2022-12-17T08:07:49;3.50;99.90
37788;DHT22;23627;53.302;-6.362;2022-12-17T08:10:33;3.50;99.90
37788;DHT22;23627;53.302;-6.362;2022-12-17T08:13:17;3.50;99.90
37788;DHT22;23627;53.302;-6.362;2022-12-17T08:16:01;3.50;99.90
37788;DHT22;23627;53.302;-6.362;2022-12-17T08:18:45;3.40;99.90
37788;DHT22;23627;53.302;-6.362;2022-12-17T08:21:29;3.40;99.90
37788;DHT22;23627;53.302;-6.362;2022-12-17T08:24:14;3.50;99.90
37788;DHT22;23627;53.302;-6.362;2022-12-17T08:26:58;3.40;99.90
37788;DHT22;23627;53.302;-6.362;2022-12-17T08:29:42;3.40;99.90
37788;DHT22;23627;53.302;-6.362;2022-12-17T08:32:26;3.40;99.90
37788;DHT22;23627;53.302;-6.362;2022-12-17T08:35:10;3.40;99.90
37788;DHT22;23627;53.302;-6.362;2022-12-17T08:38:01;3.40;99.90
37788;DHT22;23627;53.302;-6.362;2022-12-17T08:40:45;3.40;99.90
37788;DHT22;23627;53.302;-6.362;2022-12-17T08:43:29;3.40;99.90
37788;DHT22;23627;53.302;-6.362;2022-12-17T08:46:14;3.40;99.90
37788;DHT22;23627;53.302;-6.362;2022-12-17T08:48:58;3.40;99.90
37788;DHT22;23627;53.302;-6.362;2022-12-17T08:51:42;3.40;99.90
37788;DHT22;23627;53.302;-6.362;2022-12-17T08:54:26;3.40;99.90
37788;DHT22;23627;53.302;-6.362;2022-12-17T08:57:10;3.30;99.90
37788;DHT22;23627;53.302;-6.362;2022-12-17T08:59:55;3.30;99.90
37788;DHT22;23627;53.302;-6.362;2022-12-17T09:02:39;3.40;99.90
37788;DHT22;23627;53.302;-6.362;2022-12-17T09:05:23;3.40;99.90
37788;DHT22;23627;53.302;-6.362;2022-12-17T09:08:07;3.40;99.90
37788;DHT22;23627;53.302;-6.362;2022-12-17T09:10:51;3.40;99.90
37788;DHT22;23627;53.302;-6.362;2022-12-17T09:13:36;3.40;99.90
37788;DHT22;23627;53.302;-6.362;2022-12-17T09:16:20;3.40;99.90
37788;DHT22;23627;53.302;-6.362;2022-12-17T09:19:05;3.40;99.90
37788;DHT22;23627;53.302;-6.362;2022-12-17T09:22:03;3.40;99.90
37788;DHT22;23627;53.302;-6.362;2022-12-17T09:24:47;3.40;99.90
37788;DHT22;23627;53.302;-6.362;2022-12-17T09:27:31;3.40;99.90
37788;DHT22;23627;53.302;-6.362;2022-12-17T09:30:15;3.50;99.90
37788;DHT22;23627;53.302;-6.362;2022-12-17T09:32:59;3.50;99.90
37788;DHT22;23627;53.302;-6.362;2022-12-17T09:35:43;3.50;99.90
37788;DHT22;23627;53.302;-6.362;2022-12-17T09:38:27;3.50;99.90
37788;DHT22;23627;53.302;-6.362;2022-12-17T09:41:25;3.50;99.90
37788;DHT22;23627;53.302;-6.362;2022-12-17T09:44:21;3.60;99.90
37788;DHT22;23627;53.302;-6.362;2022-12-17T09:50:11;3.70;99.90
37788;DHT22;23627;53.302;-6.362;2022-12-17T09:52:55;3.60;99.90
37788;DHT22;23627;53.302;-6.362;2022-12-17T09:55:45;3.70;99.90
37788;DHT22;23627;53.302;-6.362;2022-12-17T09:58:29;3.70;99.90
37788;DHT22;23627;53.302;-6.362;2022-12-17T10:01:15;3.70;99.90
37788;DHT22;23627;53.302;-6.362;2022-12-17T10:04:00;3.70;99.90
37788;DHT22;23627;53.302;-6.362;2022-12-17T10:06:44;3.80;99.90
37788;DHT22;23627;53.302;-6.362;2022-12-17T10:09:28;3.80;99.90
37788;DHT22;23627;53.302;-6.362;2022-12-17T10:12:15;3.80;99.90
37788;DHT22;23627;53.302;-6.362;2022-12-17T10:14:59;3.90;99.90
37788;DHT22;23627;53.302;-6.362;2022-12-17T10:17:44;3.90;99.90
37788;DHT22;23627;53.302;-6.362;2022-12-17T10:23:25;4.00;99.90
37788;DHT22;23627;53.302;-6.362;2022-12-17T10:26:14;4.00;99.90
37788;DHT22;23627;53.302;-6.362;2022-12-17T10:29:18;4.00;99.90
37788;DHT22;23627;53.302;-6.362;2022-12-17T10:34:59;4.10;99.90
37788;DHT22;23627;53.302;-6.362;2022-12-17T10:37:45;4.10;99.90
37788;DHT22;23627;53.302;-6.362;2022-12-17T10:40:31;4.10;99.90
37788;DHT22;23627;53.302;-6.362;2022-12-17T10:43:31;4.10;99.90
37788;DHT22;23627;53.302;-6.362;2022-12-17T10:46:29;4.10;99.90
37788;DHT22;23627;53.302;-6.362;2022-12-17T10:49:14;4.10;99.90
37788;DHT22;23627;53.302;-6.362;2022-12-17T10:52:12;4.10;99.90
37788;DHT22;23627;53.302;-6.362;2022-12-17T10:55:00;4.10;99.90
37788;DHT22;23627;53.302;-6.362;2022-12-17T10:57:46;4.10;99.90
37788;DHT22;23627;53.302;-6.362;2022-12-17T11:00:38;4.10;99.90
37788;DHT22;23627;53.302;-6.362;2022-12-17T11:06:12;4.10;99.90
37788;DHT22;23627;53.302;-6.362;2022-12-17T11:08:57;4.10;99.90
37788;DHT22;23627;53.302;-6.362;2022-12-17T11:11:43;4.20;99.90
37788;DHT22;23627;53.302;-6.362;2022-12-17T11:14:27;4.20;99.90
37788;DHT22;23627;53.302;-6.362;2022-12-17T11:17:13;4.20;99.90
37788;DHT22;23627;53.302;-6.362;2022-12-17T11:20:04;4.30;99.90
37788;DHT22;23627;53.302;-6.362;2022-12-17T11:23:01;4.30;99.90
37788;DHT22;23627;53.302;-6.362;2022-12-17T11:28:39;4.30;99.90
37788;DHT22;23627;53.302;-6.362;2022-12-17T11:34:11;4.30;99.90
37788;DHT22;23627;53.302;-6.362;2022-12-17T11:37:07;4.40;99.90
37788;DHT22;23627;53.302;-6.362;2022-12-17T11:40:15;4.40;99.90
37788;DHT22;23627;53.302;-6.362;2022-12-17T11:49:10;4.40;99.90
37788;DHT22;23627;53.302;-6.362;2022-12-17T11:52:04;4.40;99.90
37788;DHT22;23627;53.302;-6.362;2022-12-17T11:58:17;4.40;99.90
37788;DHT22;23627;53.302;-6.362;2022-12-17T12:12:29;4.70;99.90
37788;DHT22;23627;53.302;-6.362;2022-12-17T12:15:23;4.70;99.90
37788;DHT22;23627;53.302;-6.362;2022-12-17T12:26:22;4.70;99.90
37788;DHT22;23627;53.302;-6.362;2022-12-17T12:29:11;4.60;99.90
37788;DHT22;23627;53.302;-6.362;2022-12-17T12:35:02;4.50;99.90
37788;DHT22;23627;53.302;-6.362;2022-12-17T12:37:46;4.40;99.90
37788;DHT22;23627;53.302;-6.362;2022-12-17T12:40:53;4.40;99.90
37788;DHT22;23627;53.302;-6.362;2022-12-17T12:43:36;4.40;99.90
37788;DHT22;23627;53.302;-6.362;2022-12-17T12:46:28;4.30;99.90
37788;DHT22;23627;53.302;-6.362;2022-12-17T12:49:17;4.30;99.90
37788;DHT22;23627;53.302;-6.362;2022-12-17T12:52:07;4.30;99.90
37788;DHT22;23627;53.302;-6.362;2022-12-17T12:54:53;4.50;99.90
37788;DHT22;23627;53.302;-6.362;2022-12-17T13:03:31;4.80;99.90
37788;DHT22;23627;53.302;-6.362;2022-12-17T13:12:07;5.00;99.90
37788;DHT22;23627;53.302;-6.362;2022-12-17T13:25:21;5.10;99.90
37788;DHT22;23627;53.302;-6.362;2022-12-17T13:27:47;5.10;99.90
37788;DHT22;23627;53.302;-6.362;2022-12-17T13:32:52;5.10;99.90
37788;DHT22;23627;53.302;-6.362;2022-12-17T13:42:55;5.10;99.90
37788;DHT22;23627;53.302;-6.362;2022-12-17T13:45:22;5.10;99.90
37788;DHT22;23627;53.302;-6.362;2022-12-17T13:47:52;5.10;99.90
37788;DHT22;23627;53.302;-6.362;2022-12-17T13:50:19;5.00;99.90
37788;DHT22;23627;53.302;-6.362;2022-12-17T13:52:45;5.00;99.90
37788;DHT22;23627;53.302;-6.362;2022-12-17T13:55:19;5.00;99.90
37788;DHT22;23627;53.302;-6.362;2022-12-17T13:57:46;5.00;99.90
37788;DHT22;23627;53.302;-6.362;2022-12-17T14:00:19;5.00;99.90
37788;DHT22;23627;53.302;-6.362;2022-12-17T14:02:45;5.00;99.90
37788;DHT22;23627;53.302;-6.362;2022-12-17T14:08:11;4.90;99.90
37788;DHT22;23627;53.302;-6.362;2022-12-17T14:10:41;4.90;99.90
37788;DHT22;23627;53.302;-6.362;2022-12-17T14:13:14;4.90;99.90
37788;DHT22;23627;53.302;-6.362;2022-12-17T14:15:47;4.80;99.90
37788;DHT22;23627;53.302;-6.362;2022-12-17T14:18:13;4.80;99.90
37788;DHT22;23627;53.302;-6.362;2022-12-17T14:20:40;4.80;99.90
37788;DHT22;23627;53.302;-6.362;2022-12-17T14:25:41;4.80;99.90
37788;DHT22;23627;53.302;-6.362;2022-12-17T14:28:22;4.70;99.90
37788;DHT22;23627;53.302;-6.362;2022-12-17T14:30:50;4.70;99.90
37788;DHT22;23627;53.302;-6.362;2022-12-17T14:36:04;4.60;99.90
37788;DHT22;23627;53.302;-6.362;2022-12-17T14:38:31;4.60;99.90
37788;DHT22;23627;53.302;-6.362;2022-12-17T14:41:00;4.60;99.90
37788;DHT22;23627;53.302;-6.362;2022-12-17T14:43:53;4.50;99.90
37788;DHT22;23627;53.302;-6.362;2022-12-17T14:46:19;4.50;99.90
37788;DHT22;23627;53.302;-6.362;2022-12-17T14:48:52;4.50;99.90
37788;DHT22;23627;53.302;-6.362;2022-12-17T14:51:37;4.50;99.90
37788;DHT22;23627;53.302;-6.362;2022-12-17T14:56:48;4.40;99.90
37788;DHT22;23627;53.302;-6.362;2022-12-17T15:01:46;4.40;99.90
37788;DHT22;23627;53.302;-6.362;2022-12-17T15:04:12;4.40;99.90
37788;DHT22;23627;53.302;-6.362;2022-12-17T15:06:37;4.30;99.90
37788;DHT22;23627;53.302;-6.362;2022-12-17T15:09:03;4.30;99.90
37788;DHT22;23627;53.302;-6.362;2022-12-17T15:11:37;4.30;99.90
37788;DHT22;23627;53.302;-6.362;2022-12-17T15:14:14;4.30;99.90
37788;DHT22;23627;53.302;-6.362;2022-12-17T15:16:40;4.30;99.90
37788;DHT22;23627;53.302;-6.362;2022-12-17T15:19:05;4.20;99.90
37788;DHT22;23627;53.302;-6.362;2022-12-17T15:21:31;4.20;99.90
37788;DHT22;23627;53.302;-6.362;2022-12-17T15:23:57;4.20;99.90
37788;DHT22;23627;53.302;-6.362;2022-12-17T15:26:22;4.20;99.90
37788;DHT22;23627;53.302;-6.362;2022-12-17T15:28:48;4.20;99.90
37788;DHT22;23627;53.302;-6.362;2022-12-17T15:31:14;4.10;99.90
37788;DHT22;23627;53.302;-6.362;2022-12-17T15:33:40;4.10;99.90
37788;DHT22;23627;53.302;-6.362;2022-12-17T15:36:06;4.10;99.90
37788;DHT22;23627;53.302;-6.362;2022-12-17T15:38:31;4.10;99.90
37788;DHT22;23627;53.302;-6.362;2022-12-17T15:41:01;4.00;99.90
37788;DHT22;23627;53.302;-6.362;2022-12-17T15:43:47;4.00;99.90
37788;DHT22;23627;53.302;-6.362;2022-12-17T15:46:13;4.00;99.90
37788;DHT22;23627;53.302;-6.362;2022-12-17T15:48:39;4.00;99.90
37788;DHT22;23627;53.302;-6.362;2022-12-17T15:51:04;3.90;99.90
37788;DHT22;23627;53.302;-6.362;2022-12-17T15:53:30;3.90;99.90
37788;DHT22;23627;53.302;-6.362;2022-12-17T15:55:59;3.90;99.90
37788;DHT22;23627;53.302;-6.362;2022-12-17T15:58:25;3.80;99.90
37788;DHT22;23627;53.302;-6.362;2022-12-17T16:00:51;3.80;99.90
37788;DHT22;23627;53.302;-6.362;2022-12-17T16:03:16;3.80;99.90
37788;DHT22;23627;53.302;-6.362;2022-12-17T16:05:42;3.70;99.90
37788;DHT22;23627;53.302;-6.362;2022-12-17T16:08:08;3.70;99.90
37788;DHT22;23627;53.302;-6.362;2022-12-17T16:10:34;3.70;99.90
37788;DHT22;23627;53.302;-6.362;2022-12-17T16:12:59;3.70;99.90
37788;DHT22;23627;53.302;-6.362;2022-12-17T16:15:25;3.70;99.90
37788;DHT22;23627;53.302;-6.362;2022-12-17T16:17:51;3.70;99.90
37788;DHT22;23627;53.302;-6.362;2022-12-17T16:20:16;3.60;99.90
37788;DHT22;23627;53.302;-6.362;2022-12-17T16:22:42;3.60;99.90
37788;DHT22;23627;53.302;-6.362;2022-12-17T16:25:08;3.60;99.90
37788;DHT22;23627;53.302;-6.362;2022-12-17T16:27:34;3.60;99.90
37788;DHT22;23627;53.302;-6.362;2022-12-17T16:29:59;3.50;99.90
37788;DHT22;23627;53.302;-6.362;2022-12-17T16:32:25;3.50;99.90
37788;DHT22;23627;53.302;-6.362;2022-12-17T16:34:51;3.50;99.90
37788;DHT22;23627;53.302;-6.362;2022-12-17T16:37:16;3.40;99.90
37788;DHT22;23627;53.302;-6.362;2022-12-17T16:39:43;3.40;99.90
37788;DHT22;23627;53.302;-6.362;2022-12-17T16:42:08;3.40;99.90
37788;DHT22;23627;53.302;-6.362;2022-12-17T16:44:35;3.40;99.90
37788;DHT22;23627;53.302;-6.362;2022-12-17T16:47:01;3.40;99.90
37788;DHT22;23627;53.302;-6.362;2022-12-17T16:49:27;3.40;99.90
37788;DHT22;23627;53.302;-6.362;2022-12-17T16:51:53;3.30;99.90
37788;DHT22;23627;53.302;-6.362;2022-12-17T16:54:20;3.30;99.90
37788;DHT22;23627;53.302;-6.362;2022-12-17T16:56:46;3.30;99.90
37788;DHT22;23627;53.302;-6.362;2022-12-17T16:59:12;3.30;99.90
37788;DHT22;23627;53.302;-6.362;2022-12-17T17:01:39;3.30;99.90
37788;DHT22;23627;53.302;-6.362;2022-12-17T17:04:05;3.30;99.90
37788;DHT22;23627;53.302;-6.362;2022-12-17T17:06:31;3.20;99.90
37788;DHT22;23627;53.302;-6.362;2022-12-17T17:08:56;3.20;99.90
37788;DHT22;23627;53.302;-6.362;2022-12-17T17:11:23;3.20;99.90
37788;DHT22;23627;53.302;-6.362;2022-12-17T17:13:49;3.20;99.90
37788;DHT22;23627;53.302;-6.362;2022-12-17T17:16:15;3.20;99.90
37788;DHT22;23627;53.302;-6.362;2022-12-17T17:18:41;3.10;99.90
37788;DHT22;23627;53.302;-6.362;2022-12-17T17:23:39;3.10;99.90
37788;DHT22;23627;53.302;-6.362;2022-12-17T17:26:04;3.10;99.90
37788;DHT22;23627;53.302;-6.362;2022-12-17T17:28:30;3.00;99.90
37788;DHT22;23627;53.302;-6.362;2022-12-17T17:31:03;3.00;99.90
37788;DHT22;23627;53.302;-6.362;2022-12-17T17:33:29;3.00;99.90
37788;DHT22;23627;53.302;-6.362;2022-12-17T17:36:01;3.00;99.90
37788;DHT22;23627;53.302;-6.362;2022-12-17T17:38:27;3.00;99.90
37788;DHT22;23627;53.302;-6.362;2022-12-17T17:40:56;2.90;99.90
37788;DHT22;23627;53.302;-6.362;2022-12-17T17:43:22;2.90;99.90
37788;DHT22;23627;53.302;-6.362;2022-12-17T17:45:48;2.90;99.90
37788;DHT22;23627;53.302;-6.362;2022-12-17T17:48:13;2.90;99.90
37788;DHT22;23627;53.302;-6.362;2022-12-17T17:50:39;2.90;99.90
37788;DHT22;23627;53.302;-6.362;2022-12-17T17:53:04;2.80;99.90
37788;DHT22;23627;53.302;-6.362;2022-12-17T17:55:32;2.80;99.90
37788;DHT22;23627;53.302;-6.362;2022-12-17T17:57:58;2.80;99.90
37788;DHT22;23627;53.302;-6.362;2022-12-17T18:00:24;2.80;99.90
37788;DHT22;23627;53.302;-6.362;2022-12-17T18:02:49;2.80;99.90
37788;DHT22;23627;53.302;-6.362;2022-12-17T18:05:15;2.80;99.90
37788;DHT22;23627;53.302;-6.362;2022-12-17T18:07:40;2.80;99.90
37788;DHT22;23627;53.302;-6.362;2022-12-17T18:10:06;2.70;99.90
37788;DHT22;23627;53.302;-6.362;2022-12-17T18:12:32;2.70;99.90
37788;DHT22;23627;53.302;-6.362;2022-12-17T18:15:16;2.70;99.90
37788;DHT22;23627;53.302;-6.362;2022-12-17T18:17:42;2.70;99.90
37788;DHT22;23627;53.302;-6.362;2022-12-17T18:20:09;2.80;99.90
37788;DHT22;23627;53.302;-6.362;2022-12-17T18:22:34;2.80;99.90
37788;DHT22;23627;53.302;-6.362;2022-12-17T18:25:00;2.90;99.90
37788;DHT22;23627;53.302;-6.362;2022-12-17T18:27:26;2.90;99.90
37788;DHT22;23627;53.302;-6.362;2022-12-17T18:29:51;2.90;99.90
37788;DHT22;23627;53.302;-6.362;2022-12-17T18:32:17;2.90;99.90